sensor_id;sensor_type;location;lat;lon;timestamp;P1;durP1;ratioP1;P2;durP2;ratioP2
51732;SDS011;39139;53.144;6.244;2023-02-28T00:00:03;9.10;;;2.75;;
51732;SDS011;39139;53.144;6.244;2023-02-28T00:02:36;8.25;;;3.05;;
51732;SDS011;39139;53.144;6.244;2023-02-28T00:05:03;9.10;;;3.20;;
51732;SDS011;39139;53.144;6.244;2023-02-28T00:07:30;10.48;;;2.78;;
51732;SDS011;39139;53.144;6.244;2023-02-28T00:09:56;9.77;;;2.85;;
51732;SDS011;39139;53.144;6.244;2023-02-28T00:12:21;8.52;;;2.40;;
51732;SDS011;39139;53.144;6.244;2023-02-28T00:14:48;14.63;;;2.97;;
51732;SDS011;39139;53.144;6.244;2023-02-28T00:17:13;9.98;;;2.60;;
51732;SDS011;39139;53.144;6.244;2023-02-28T00:19:39;5.90;;;2.63;;
51732;SDS011;39139;53.144;6.244;2023-02-28T00:22:05;9.95;;;2.97;;
51732;SDS011;39139;53.144;6.244;2023-02-28T00:24:30;5.75;;;2.47;;
51732;SDS011;39139;53.144;6.244;2023-02-28T00:26:56;6.85;;;2.20;;
51732;SDS011;39139;53.144;6.244;2023-02-28T00:29:21;4.70;;;2.38;;
51732;SDS011;39139;53.144;6.244;2023-02-28T00:31:47;9.15;;;2.75;;
51732;SDS011;39139;53.144;6.244;2023-02-28T00:34:13;8.60;;;2.72;;
51732;SDS011;39139;53.144;6.244;2023-02-28T00:36:38;10.80;;;2.70;;
51732;SDS011;39139;53.144;6.244;2023-02-28T00:39:05;4.55;;;2.70;;
51732;SDS011;39139;53.144;6.244;2023-02-28T00:41:31;9.27;;;2.65;;
51732;SDS011;39139;53.144;6.244;2023-02-28T00:43:57;11.10;;;3.10;;
51732;SDS011;39139;53.144;6.244;2023-02-28T00:46:22;6.60;;;2.45;;
51732;SDS011;39139;53.144;6.244;2023-02-28T00:48:48;8.68;;;2.70;;
51732;SDS011;39139;53.144;6.244;2023-02-28T00:51:13;11.27;;;3.28;;
51732;SDS011;39139;53.144;6.244;2023-02-28T00:53:39;6.20;;;2.75;;
51732;SDS011;39139;53.144;6.244;2023-02-28T00:56:04;6.82;;;2.25;;
51732;SDS011;39139;53.144;6.244;2023-02-28T00:58:30;12.82;;;2.92;;
51732;SDS011;39139;53.144;6.244;2023-02-28T01:00:56;6.28;;;2.78;;
51732;SDS011;39139;53.144;6.244;2023-02-28T01:03:22;11.45;;;2.97;;
51732;SDS011;39139;53.144;6.244;2023-02-28T01:05:47;12.38;;;2.72;;
51732;SDS011;39139;53.144;6.244;2023-02-28T01:08:13;15.55;;;3.72;;
51732;SDS011;39139;53.144;6.244;2023-02-28T01:10:40;4.50;;;2.95;;
51732;SDS011;39139;53.144;6.244;2023-02-28T01:13:05;14.90;;;2.70;;
51732;SDS011;39139;53.144;6.244;2023-02-28T01:15:31;11.75;;;3.35;;
51732;SDS011;39139;53.144;6.244;2023-02-28T01:17:57;13.35;;;3.35;;
51732;SDS011;39139;53.144;6.244;2023-02-28T01:20:23;8.02;;;3.40;;
51732;SDS011;39139;53.144;6.244;2023-02-28T01:22:49;11.60;;;3.22;;
51732;SDS011;39139;53.144;6.244;2023-02-28T01:25:14;9.10;;;3.85;;
51732;SDS011;39139;53.144;6.244;2023-02-28T01:27:40;9.52;;;4.03;;
51732;SDS011;39139;53.144;6.244;2023-02-28T01:30:06;8.43;;;3.28;;
51732;SDS011;39139;53.144;6.244;2023-02-28T01:32:33;8.77;;;2.75;;
51732;SDS011;39139;53.144;6.244;2023-02-28T01:34:59;6.43;;;3.35;;
51732;SDS011;39139;53.144;6.244;2023-02-28T01:37:25;14.40;;;3.40;;
51732;SDS011;39139;53.144;6.244;2023-02-28T01:39:50;11.93;;;2.78;;
51732;SDS011;39139;53.144;6.244;2023-02-28T01:42:16;12.13;;;2.95;;
51732;SDS011;39139;53.144;6.244;2023-02-28T01:47:23;11.10;;;3.50;;
51732;SDS011;39139;53.144;6.244;2023-02-28T01:49:55;7.53;;;2.53;;
51732;SDS011;39139;53.144;6.244;2023-02-28T01:52:21;9.30;;;3.50;;
51732;SDS011;39139;53.144;6.244;2023-02-28T01:54:51;10.00;;;3.17;;
51732;SDS011;39139;53.144;6.244;2023-02-28T01:57:19;8.40;;;3.40;;
51732;SDS011;39139;53.144;6.244;2023-02-28T01:59:57;3.40;;;2.97;;
51732;SDS011;39139;53.144;6.244;2023-02-28T02:02:29;7.55;;;2.78;;
51732;SDS011;39139;53.144;6.244;2023-02-28T02:05:15;3.33;;;2.55;;
51732;SDS011;39139;53.144;6.244;2023-02-28T02:07:46;8.65;;;2.53;;
51732;SDS011;39139;53.144;6.244;2023-02-28T02:10:19;9.48;;;2.70;;
51732;SDS011;39139;53.144;6.244;2023-02-28T02:17:51;11.65;;;3.30;;
51732;SDS011;39139;53.144;6.244;2023-02-28T02:31:54;11.45;;;3.60;;
51732;SDS011;39139;53.144;6.244;2023-02-28T02:42:33;6.20;;;3.17;;
51732;SDS011;39139;53.144;6.244;2023-02-28T02:45:15;11.15;;;3.38;;
51732;SDS011;39139;53.144;6.244;2023-02-28T02:48:00;15.38;;;3.40;;
51732;SDS011;39139;53.144;6.244;2023-02-28T02:50:33;7.97;;;3.42;;
51732;SDS011;39139;53.144;6.244;2023-02-28T02:53:30;10.45;;;3.50;;
51732;SDS011;39139;53.144;6.244;2023-02-28T02:56:03;8.52;;;3.42;;
51732;SDS011;39139;53.144;6.244;2023-02-28T02:58:31;6.80;;;3.35;;
51732;SDS011;39139;53.144;6.244;2023-02-28T03:01:06;9.38;;;2.95;;
51732;SDS011;39139;53.144;6.244;2023-02-28T03:03:35;7.63;;;3.10;;
51732;SDS011;39139;53.144;6.244;2023-02-28T03:06:02;13.00;;;3.72;;
51732;SDS011;39139;53.144;6.244;2023-02-28T03:08:29;15.75;;;4.13;;
51732;SDS011;39139;53.144;6.244;2023-02-28T03:11:04;14.13;;;3.70;;
51732;SDS011;39139;53.144;6.244;2023-02-28T03:18:54;9.20;;;3.05;;
51732;SDS011;39139;53.144;6.244;2023-02-28T03:21:42;9.23;;;3.58;;
51732;SDS011;39139;53.144;6.244;2023-02-28T03:24:31;11.55;;;3.08;;
51732;SDS011;39139;53.144;6.244;2023-02-28T03:27:09;8.77;;;3.28;;
51732;SDS011;39139;53.144;6.244;2023-02-28T03:29:50;9.07;;;3.33;;
51732;SDS011;39139;53.144;6.244;2023-02-28T03:32:33;9.00;;;3.15;;
51732;SDS011;39139;53.144;6.244;2023-02-28T03:35:17;14.70;;;3.15;;
51732;SDS011;39139;53.144;6.244;2023-02-28T03:37:50;13.60;;;3.10;;
51732;SDS011;39139;53.144;6.244;2023-02-28T03:40:23;6.43;;;2.75;;
51732;SDS011;39139;53.144;6.244;2023-02-28T03:42:54;8.63;;;3.60;;
51732;SDS011;39139;53.144;6.244;2023-02-28T03:45:25;6.03;;;2.97;;
51732;SDS011;39139;53.144;6.244;2023-02-28T03:48:38;5.88;;;3.33;;
51732;SDS011;39139;53.144;6.244;2023-02-28T03:50:53;8.15;;;3.28;;
51732;SDS011;39139;53.144;6.244;2023-02-28T03:53:25;7.85;;;2.97;;
51732;SDS011;39139;53.144;6.244;2023-02-28T03:58:41;12.32;;;3.47;;
51732;SDS011;39139;53.144;6.244;2023-02-28T04:01:47;12.07;;;3.00;;
51732;SDS011;39139;53.144;6.244;2023-02-28T04:04:14;7.72;;;3.55;;
51732;SDS011;39139;53.144;6.244;2023-02-28T04:06:41;12.85;;;3.42;;
51732;SDS011;39139;53.144;6.244;2023-02-28T04:09:09;12.27;;;3.13;;
51732;SDS011;39139;53.144;6.244;2023-02-28T04:11:38;9.55;;;3.97;;
51732;SDS011;39139;53.144;6.244;2023-02-28T04:14:06;13.25;;;4.15;;
51732;SDS011;39139;53.144;6.244;2023-02-28T04:16:33;11.25;;;4.75;;
51732;SDS011;39139;53.144;6.244;2023-02-28T04:19:00;10.57;;;5.10;;
51732;SDS011;39139;53.144;6.244;2023-02-28T04:21:37;11.93;;;6.05;;
51732;SDS011;39139;53.144;6.244;2023-02-28T04:24:08;9.95;;;6.72;;
51732;SDS011;39139;53.144;6.244;2023-02-28T04:26:39;17.48;;;7.55;;
51732;SDS011;39139;53.144;6.244;2023-02-28T04:29:06;13.30;;;8.40;;
51732;SDS011;39139;53.144;6.244;2023-02-28T04:31:32;17.75;;;10.18;;
51732;SDS011;39139;53.144;6.244;2023-02-28T04:33:59;12.88;;;9.23;;
51732;SDS011;39139;53.144;6.244;2023-02-28T04:36:25;17.13;;;10.32;;
51732;SDS011;39139;53.144;6.244;2023-02-28T04:38:50;13.18;;;10.18;;
51732;SDS011;39139;53.144;6.244;2023-02-28T04:41:16;12.30;;;7.78;;
51732;SDS011;39139;53.144;6.244;2023-02-28T04:43:42;11.43;;;8.40;;
51732;SDS011;39139;53.144;6.244;2023-02-28T04:46:08;14.73;;;9.13;;
51732;SDS011;39139;53.144;6.244;2023-02-28T04:48:35;12.02;;;9.35;;
51732;SDS011;39139;53.144;6.244;2023-02-28T04:51:03;14.82;;;9.57;;
51732;SDS011;39139;53.144;6.244;2023-02-28T04:53:33;12.93;;;8.90;;
51732;SDS011;39139;53.144;6.244;2023-02-28T04:55:59;11.23;;;9.48;;
51732;SDS011;39139;53.144;6.244;2023-02-28T04:58:25;9.57;;;7.40;;
51732;SDS011;39139;53.144;6.244;2023-02-28T05:00:53;10.02;;;6.80;;
51732;SDS011;39139;53.144;6.244;2023-02-28T05:03:25;10.18;;;6.40;;
51732;SDS011;39139;53.144;6.244;2023-02-28T05:05:51;8.25;;;6.28;;
51732;SDS011;39139;53.144;6.244;2023-02-28T05:08:16;7.60;;;6.43;;
51732;SDS011;39139;53.144;6.244;2023-02-28T05:10:42;10.25;;;6.90;;
51732;SDS011;39139;53.144;6.244;2023-02-28T05:13:09;7.93;;;6.72;;
51732;SDS011;39139;53.144;6.244;2023-02-28T05:15:38;8.32;;;5.97;;
51732;SDS011;39139;53.144;6.244;2023-02-28T05:18:04;9.48;;;5.53;;
51732;SDS011;39139;53.144;6.244;2023-02-28T05:20:30;10.45;;;7.35;;
51732;SDS011;39139;53.144;6.244;2023-02-28T05:22:56;9.48;;;7.50;;
51732;SDS011;39139;53.144;6.244;2023-02-28T05:25:24;14.02;;;7.35;;
51732;SDS011;39139;53.144;6.244;2023-02-28T05:27:49;9.65;;;8.15;;
51732;SDS011;39139;53.144;6.244;2023-02-28T05:30:15;9.32;;;7.45;;
51732;SDS011;39139;53.144;6.244;2023-02-28T05:32:41;8.82;;;7.93;;
51732;SDS011;39139;53.144;6.244;2023-02-28T05:35:10;11.82;;;7.28;;
51732;SDS011;39139;53.144;6.244;2023-02-28T05:37:36;11.48;;;7.90;;
51732;SDS011;39139;53.144;6.244;2023-02-28T05:40:03;9.77;;;7.68;;
51732;SDS011;39139;53.144;6.244;2023-02-28T05:42:31;13.32;;;9.85;;
51732;SDS011;39139;53.144;6.244;2023-02-28T05:44:57;10.52;;;8.32;;
51732;SDS011;39139;53.144;6.244;2023-02-28T05:47:23;11.18;;;8.02;;
51732;SDS011;39139;53.144;6.244;2023-02-28T05:49:48;11.02;;;7.20;;
51732;SDS011;39139;53.144;6.244;2023-02-28T05:52:14;10.32;;;7.38;;
51732;SDS011;39139;53.144;6.244;2023-02-28T05:54:40;10.45;;;7.93;;
51732;SDS011;39139;53.144;6.244;2023-02-28T05:57:06;11.88;;;7.47;;
51732;SDS011;39139;53.144;6.244;2023-02-28T05:59:32;8.48;;;7.65;;
51732;SDS011;39139;53.144;6.244;2023-02-28T06:01:58;10.90;;;6.40;;
51732;SDS011;39139;53.144;6.244;2023-02-28T06:04:23;9.70;;;7.40;;
51732;SDS011;39139;53.144;6.244;2023-02-28T06:06:49;11.07;;;7.90;;
51732;SDS011;39139;53.144;6.244;2023-02-28T06:09:15;8.55;;;6.35;;
51732;SDS011;39139;53.144;6.244;2023-02-28T06:11:42;8.70;;;7.38;;
51732;SDS011;39139;53.144;6.244;2023-02-28T06:14:18;10.02;;;7.00;;
51732;SDS011;39139;53.144;6.244;2023-02-28T06:16:45;12.60;;;8.55;;
51732;SDS011;39139;53.144;6.244;2023-02-28T06:19:11;9.45;;;6.90;;
51732;SDS011;39139;53.144;6.244;2023-02-28T06:21:36;12.60;;;8.57;;
51732;SDS011;39139;53.144;6.244;2023-02-28T06:24:02;14.70;;;10.25;;
51732;SDS011;39139;53.144;6.244;2023-02-28T06:26:28;13.43;;;10.30;;
51732;SDS011;39139;53.144;6.244;2023-02-28T06:28:54;9.77;;;7.50;;
51732;SDS011;39139;53.144;6.244;2023-02-28T06:31:20;14.98;;;10.18;;
51732;SDS011;39139;53.144;6.244;2023-02-28T06:33:47;14.25;;;10.85;;
51732;SDS011;39139;53.144;6.244;2023-02-28T06:36:13;15.48;;;10.82;;
51732;SDS011;39139;53.144;6.244;2023-02-28T06:38:40;17.98;;;11.93;;
51732;SDS011;39139;53.144;6.244;2023-02-28T06:41:06;17.65;;;12.18;;
51732;SDS011;39139;53.144;6.244;2023-02-28T06:43:35;19.65;;;11.70;;
51732;SDS011;39139;53.144;6.244;2023-02-28T06:46:04;17.80;;;12.30;;
51732;SDS011;39139;53.144;6.244;2023-02-28T06:48:32;19.55;;;13.00;;
51732;SDS011;39139;53.144;6.244;2023-02-28T06:51:05;16.30;;;12.55;;
51732;SDS011;39139;53.144;6.244;2023-02-28T06:53:32;23.85;;;13.77;;
51732;SDS011;39139;53.144;6.244;2023-02-28T06:55:58;19.63;;;13.50;;
51732;SDS011;39139;53.144;6.244;2023-02-28T06:58:24;22.55;;;14.30;;
51732;SDS011;39139;53.144;6.244;2023-02-28T07:00:50;22.77;;;14.77;;
51732;SDS011;39139;53.144;6.244;2023-02-28T07:03:17;19.35;;;12.82;;
51732;SDS011;39139;53.144;6.244;2023-02-28T07:05:43;23.10;;;15.38;;
51732;SDS011;39139;53.144;6.244;2023-02-28T07:08:09;19.00;;;14.07;;
51732;SDS011;39139;53.144;6.244;2023-02-28T07:10:38;19.58;;;14.52;;
51732;SDS011;39139;53.144;6.244;2023-02-28T07:13:05;23.05;;;14.80;;
51732;SDS011;39139;53.144;6.244;2023-02-28T07:15:32;20.60;;;14.40;;
51732;SDS011;39139;53.144;6.244;2023-02-28T07:17:58;21.65;;;15.25;;
51732;SDS011;39139;53.144;6.244;2023-02-28T07:20:24;20.52;;;14.38;;
51732;SDS011;39139;53.144;6.244;2023-02-28T07:22:50;17.15;;;13.77;;
51732;SDS011;39139;53.144;6.244;2023-02-28T07:25:24;25.25;;;15.25;;
51732;SDS011;39139;53.144;6.244;2023-02-28T07:27:52;19.48;;;12.90;;
51732;SDS011;39139;53.144;6.244;2023-02-28T07:30:18;18.88;;;14.27;;
51732;SDS011;39139;53.144;6.244;2023-02-28T07:32:44;19.65;;;14.40;;
51732;SDS011;39139;53.144;6.244;2023-02-28T07:35:10;22.15;;;14.38;;
51732;SDS011;39139;53.144;6.244;2023-02-28T07:37:36;21.52;;;14.80;;
51732;SDS011;39139;53.144;6.244;2023-02-28T07:40:05;20.08;;;15.50;;
51732;SDS011;39139;53.144;6.244;2023-02-28T07:42:34;18.98;;;14.48;;
51732;SDS011;39139;53.144;6.244;2023-02-28T07:45:01;20.42;;;14.68;;
51732;SDS011;39139;53.144;6.244;2023-02-28T07:47:28;20.75;;;14.35;;
51732;SDS011;39139;53.144;6.244;2023-02-28T07:49:58;19.92;;;14.98;;
51732;SDS011;39139;53.144;6.244;2023-02-28T07:52:24;25.88;;;15.40;;
51732;SDS011;39139;53.144;6.244;2023-02-28T07:54:50;23.65;;;15.82;;
51732;SDS011;39139;53.144;6.244;2023-02-28T07:57:16;22.63;;;16.50;;
51732;SDS011;39139;53.144;6.244;2023-02-28T07:59:43;19.10;;;15.15;;
51732;SDS011;39139;53.144;6.244;2023-02-28T08:02:15;20.98;;;15.35;;
51732;SDS011;39139;53.144;6.244;2023-02-28T08:04:42;20.10;;;13.82;;
51732;SDS011;39139;53.144;6.244;2023-02-28T08:07:07;23.90;;;15.23;;
51732;SDS011;39139;53.144;6.244;2023-02-28T08:09:34;24.10;;;15.77;;
51732;SDS011;39139;53.144;6.244;2023-02-28T08:12:00;21.40;;;16.27;;
51732;SDS011;39139;53.144;6.244;2023-02-28T08:14:26;19.15;;;15.20;;
51732;SDS011;39139;53.144;6.244;2023-02-28T08:16:51;20.35;;;15.73;;
51732;SDS011;39139;53.144;6.244;2023-02-28T08:19:17;19.13;;;15.23;;
51732;SDS011;39139;53.144;6.244;2023-02-28T08:21:42;26.15;;;16.25;;
51732;SDS011;39139;53.144;6.244;2023-02-28T08:24:08;21.10;;;15.27;;
51732;SDS011;39139;53.144;6.244;2023-02-28T08:26:34;23.13;;;15.18;;
51732;SDS011;39139;53.144;6.244;2023-02-28T08:28:59;21.95;;;15.98;;
51732;SDS011;39139;53.144;6.244;2023-02-28T08:31:25;21.73;;;15.65;;
51732;SDS011;39139;53.144;6.244;2023-02-28T08:33:51;19.02;;;15.25;;
51732;SDS011;39139;53.144;6.244;2023-02-28T08:36:18;20.90;;;15.93;;
51732;SDS011;39139;53.144;6.244;2023-02-28T08:38:44;22.00;;;16.30;;
51732;SDS011;39139;53.144;6.244;2023-02-28T08:41:11;22.45;;;15.65;;
51732;SDS011;39139;53.144;6.244;2023-02-28T08:43:38;21.88;;;14.15;;
51732;SDS011;39139;53.144;6.244;2023-02-28T08:46:04;19.50;;;15.98;;
51732;SDS011;39139;53.144;6.244;2023-02-28T08:48:31;21.50;;;15.70;;
51732;SDS011;39139;53.144;6.244;2023-02-28T08:50:59;20.52;;;14.82;;
51732;SDS011;39139;53.144;6.244;2023-02-28T08:53:29;19.77;;;15.60;;
51732;SDS011;39139;53.144;6.244;2023-02-28T08:55:56;20.48;;;15.73;;
51732;SDS011;39139;53.144;6.244;2023-02-28T08:58:26;20.75;;;15.60;;
51732;SDS011;39139;53.144;6.244;2023-02-28T09:00:52;19.65;;;14.30;;
51732;SDS011;39139;53.144;6.244;2023-02-28T09:03:18;23.42;;;15.07;;
51732;SDS011;39139;53.144;6.244;2023-02-28T09:05:54;17.75;;;12.88;;
51732;SDS011;39139;53.144;6.244;2023-02-28T09:08:24;18.63;;;14.75;;
51732;SDS011;39139;53.144;6.244;2023-02-28T09:10:51;20.42;;;15.10;;
51732;SDS011;39139;53.144;6.244;2023-02-28T09:13:17;19.58;;;15.07;;
51732;SDS011;39139;53.144;6.244;2023-02-28T09:15:44;20.27;;;14.32;;
51732;SDS011;39139;53.144;6.244;2023-02-28T09:18:09;18.58;;;13.23;;
51732;SDS011;39139;53.144;6.244;2023-02-28T09:20:39;17.13;;;13.75;;
51732;SDS011;39139;53.144;6.244;2023-02-28T09:23:06;19.90;;;14.90;;
51732;SDS011;39139;53.144;6.244;2023-02-28T09:25:33;18.75;;;13.35;;
51732;SDS011;39139;53.144;6.244;2023-02-28T09:27:59;20.95;;;15.27;;
51732;SDS011;39139;53.144;6.244;2023-02-28T09:30:25;20.50;;;14.40;;
51732;SDS011;39139;53.144;6.244;2023-02-28T09:32:51;19.27;;;14.10;;
51732;SDS011;39139;53.144;6.244;2023-02-28T09:35:21;17.63;;;13.55;;
51732;SDS011;39139;53.144;6.244;2023-02-28T09:37:49;18.05;;;13.27;;
51732;SDS011;39139;53.144;6.244;2023-02-28T09:40:17;18.27;;;13.15;;
51732;SDS011;39139;53.144;6.244;2023-02-28T09:42:47;15.02;;;12.23;;
51732;SDS011;39139;53.144;6.244;2023-02-28T09:45:27;14.90;;;10.77;;
51732;SDS011;39139;53.144;6.244;2023-02-28T09:48:07;12.27;;;11.02;;
51732;SDS011;39139;53.144;6.244;2023-02-28T09:50:51;14.45;;;11.10;;
51732;SDS011;39139;53.144;6.244;2023-02-28T09:53:28;14.43;;;10.95;;
51732;SDS011;39139;53.144;6.244;2023-02-28T09:56:07;13.75;;;11.02;;
51732;SDS011;39139;53.144;6.244;2023-02-28T10:01:12;13.07;;;10.25;;
51732;SDS011;39139;53.144;6.244;2023-02-28T10:03:55;12.40;;;9.13;;
51732;SDS011;39139;53.144;6.244;2023-02-28T10:06:29;12.57;;;10.40;;
51732;SDS011;39139;53.144;6.244;2023-02-28T10:09:03;12.93;;;9.20;;
51732;SDS011;39139;53.144;6.244;2023-02-28T10:11:34;11.93;;;8.23;;
51732;SDS011;39139;53.144;6.244;2023-02-28T10:14:10;10.43;;;7.47;;
51732;SDS011;39139;53.144;6.244;2023-02-28T10:16:45;10.85;;;8.10;;
51732;SDS011;39139;53.144;6.244;2023-02-28T10:24:26;10.15;;;7.28;;
51732;SDS011;39139;53.144;6.244;2023-02-28T10:29:44;8.00;;;5.95;;
51732;SDS011;39139;53.144;6.244;2023-02-28T10:32:13;9.43;;;6.90;;
51732;SDS011;39139;53.144;6.244;2023-02-28T10:34:41;8.23;;;6.20;;
51732;SDS011;39139;53.144;6.244;2023-02-28T10:37:07;6.57;;;5.75;;
51732;SDS011;39139;53.144;6.244;2023-02-28T10:39:38;6.80;;;5.22;;
51732;SDS011;39139;53.144;6.244;2023-02-28T10:42:04;6.78;;;5.43;;
51732;SDS011;39139;53.144;6.244;2023-02-28T10:44:42;8.10;;;4.63;;
51732;SDS011;39139;53.144;6.244;2023-02-28T10:47:13;5.20;;;4.57;;
51732;SDS011;39139;53.144;6.244;2023-02-28T10:49:46;5.43;;;4.22;;
51732;SDS011;39139;53.144;6.244;2023-02-28T10:52:14;6.32;;;3.85;;
51732;SDS011;39139;53.144;6.244;2023-02-28T10:55:21;5.15;;;4.55;;
51732;SDS011;39139;53.144;6.244;2023-02-28T10:57:50;3.60;;;3.30;;
51732;SDS011;39139;53.144;6.244;2023-02-28T11:00:20;3.78;;;3.47;;
51732;SDS011;39139;53.144;6.244;2023-02-28T11:02:50;3.53;;;3.22;;
51732;SDS011;39139;53.144;6.244;2023-02-28T11:05:23;4.15;;;3.03;;
51732;SDS011;39139;53.144;6.244;2023-02-28T11:07:53;4.22;;;3.83;;
51732;SDS011;39139;53.144;6.244;2023-02-28T11:10:31;4.57;;;3.75;;
51732;SDS011;39139;53.144;6.244;2023-02-28T11:12:59;5.55;;;4.43;;
51732;SDS011;39139;53.144;6.244;2023-02-28T11:18:00;5.32;;;4.10;;
51732;SDS011;39139;53.144;6.244;2023-02-28T11:20:32;4.53;;;4.05;;
51732;SDS011;39139;53.144;6.244;2023-02-28T11:22:59;5.30;;;3.72;;
51732;SDS011;39139;53.144;6.244;2023-02-28T11:25:35;5.25;;;3.95;;
51732;SDS011;39139;53.144;6.244;2023-02-28T11:28:04;3.88;;;3.50;;
51732;SDS011;39139;53.144;6.244;2023-02-28T11:30:49;4.38;;;4.00;;
51732;SDS011;39139;53.144;6.244;2023-02-28T11:33:43;4.38;;;3.67;;
51732;SDS011;39139;53.144;6.244;2023-02-28T11:36:15;5.07;;;4.00;;
51732;SDS011;39139;53.144;6.244;2023-02-28T11:38:52;4.35;;;3.95;;
51732;SDS011;39139;53.144;6.244;2023-02-28T11:52:19;12.45;;;4.00;;
51732;SDS011;39139;53.144;6.244;2023-02-28T11:55:21;4.00;;;3.60;;
51732;SDS011;39139;53.144;6.244;2023-02-28T11:57:56;4.13;;;3.72;;
51732;SDS011;39139;53.144;6.244;2023-02-28T12:08:36;4.43;;;4.03;;
51732;SDS011;39139;53.144;6.244;2023-02-28T12:14:25;3.47;;;3.17;;
51732;SDS011;39139;53.144;6.244;2023-02-28T12:20:05;5.15;;;2.95;;
51732;SDS011;39139;53.144;6.244;2023-02-28T12:22:47;3.67;;;2.75;;
51732;SDS011;39139;53.144;6.244;2023-02-28T12:25:22;2.85;;;2.50;;
51732;SDS011;39139;53.144;6.244;2023-02-28T12:28:01;4.72;;;2.60;;
51732;SDS011;39139;53.144;6.244;2023-02-28T12:32:56;2.80;;;2.38;;
51732;SDS011;39139;53.144;6.244;2023-02-28T12:35:46;2.35;;;2.15;;
51732;SDS011;39139;53.144;6.244;2023-02-28T12:38:16;3.38;;;2.47;;
51732;SDS011;39139;53.144;6.244;2023-02-28T12:43:32;2.78;;;2.58;;
51732;SDS011;39139;53.144;6.244;2023-02-28T12:46:15;3.90;;;3.53;;
51732;SDS011;39139;53.144;6.244;2023-02-28T12:48:48;2.90;;;2.60;;
51732;SDS011;39139;53.144;6.244;2023-02-28T12:51:21;2.80;;;2.45;;
51732;SDS011;39139;53.144;6.244;2023-02-28T13:07:56;4.78;;;2.80;;
51732;SDS011;39139;53.144;6.244;2023-02-28T13:10:46;3.60;;;3.00;;
51732;SDS011;39139;53.144;6.244;2023-02-28T13:13:19;3.33;;;2.53;;
51732;SDS011;39139;53.144;6.244;2023-02-28T13:15:56;4.45;;;2.20;;
51732;SDS011;39139;53.144;6.244;2023-02-28T13:18:33;5.18;;;3.00;;
51732;SDS011;39139;53.144;6.244;2023-02-28T13:21:01;3.08;;;2.50;;
51732;SDS011;39139;53.144;6.244;2023-02-28T13:26:17;3.53;;;2.25;;
51732;SDS011;39139;53.144;6.244;2023-02-28T13:31:18;3.33;;;2.60;;
51732;SDS011;39139;53.144;6.244;2023-02-28T13:36:28;4.93;;;2.47;;
51732;SDS011;39139;53.144;6.244;2023-02-28T13:39:01;3.47;;;2.55;;
51732;SDS011;39139;53.144;6.244;2023-02-28T13:41:48;2.47;;;2.28;;
51732;SDS011;39139;53.144;6.244;2023-02-28T13:44:14;5.50;;;2.88;;
51732;SDS011;39139;53.144;6.244;2023-02-28T13:51:50;4.47;;;2.53;;
51732;SDS011;39139;53.144;6.244;2023-02-28T13:57:23;8.30;;;2.63;;
51732;SDS011;39139;53.144;6.244;2023-02-28T14:03:31;2.75;;;2.53;;
51732;SDS011;39139;53.144;6.244;2023-02-28T14:05:45;4.88;;;3.38;;
51732;SDS011;39139;53.144;6.244;2023-02-28T14:10:49;4.18;;;2.63;;
51732;SDS011;39139;53.144;6.244;2023-02-28T14:16:09;4.03;;;2.83;;
51732;SDS011;39139;53.144;6.244;2023-02-28T14:18:40;5.43;;;2.97;;
51732;SDS011;39139;53.144;6.244;2023-02-28T14:26:51;2.58;;;2.38;;
51732;SDS011;39139;53.144;6.244;2023-02-28T14:37:38;3.90;;;3.10;;
51732;SDS011;39139;53.144;6.244;2023-02-28T14:40:14;3.80;;;3.42;;
51732;SDS011;39139;53.144;6.244;2023-02-28T14:42:46;4.13;;;2.83;;
51732;SDS011;39139;53.144;6.244;2023-02-28T14:45:20;8.68;;;3.58;;
51732;SDS011;39139;53.144;6.244;2023-02-28T14:47:47;5.97;;;3.33;;
51732;SDS011;39139;53.144;6.244;2023-02-28T14:52:44;4.38;;;3.67;;
51732;SDS011;39139;53.144;6.244;2023-02-28T14:55:12;6.90;;;3.40;;
51732;SDS011;39139;53.144;6.244;2023-02-28T14:57:43;4.35;;;3.80;;
51732;SDS011;39139;53.144;6.244;2023-02-28T15:00:27;4.25;;;3.67;;
51732;SDS011;39139;53.144;6.244;2023-02-28T15:02:58;3.17;;;2.88;;
51732;SDS011;39139;53.144;6.244;2023-02-28T15:05:32;4.38;;;3.33;;
51732;SDS011;39139;53.144;6.244;2023-02-28T15:08:05;7.95;;;3.13;;
51732;SDS011;39139;53.144;6.244;2023-02-28T15:10:36;3.90;;;3.60;;
51732;SDS011;39139;53.144;6.244;2023-02-28T15:13:06;6.25;;;3.90;;
51732;SDS011;39139;53.144;6.244;2023-02-28T15:15:47;6.18;;;4.05;;
51732;SDS011;39139;53.144;6.244;2023-02-28T15:18:32;5.65;;;3.85;;
51732;SDS011;39139;53.144;6.244;2023-02-28T15:21:19;3.63;;;3.20;;
51732;SDS011;39139;53.144;6.244;2023-02-28T15:23:52;5.38;;;3.72;;
51732;SDS011;39139;53.144;6.244;2023-02-28T15:26:26;5.60;;;3.47;;
51732;SDS011;39139;53.144;6.244;2023-02-28T15:29:04;7.10;;;4.13;;
51732;SDS011;39139;53.144;6.244;2023-02-28T15:31:37;9.18;;;4.15;;
51732;SDS011;39139;53.144;6.244;2023-02-28T15:34:15;5.43;;;4.03;;
51732;SDS011;39139;53.144;6.244;2023-02-28T15:36:47;5.38;;;3.83;;
51732;SDS011;39139;53.144;6.244;2023-02-28T15:39:18;5.18;;;4.38;;
51732;SDS011;39139;53.144;6.244;2023-02-28T15:42:09;5.20;;;3.85;;
51732;SDS011;39139;53.144;6.244;2023-02-28T15:44:43;6.43;;;3.90;;
51732;SDS011;39139;53.144;6.244;2023-02-28T15:47:21;6.28;;;4.32;;
51732;SDS011;39139;53.144;6.244;2023-02-28T15:49:50;5.97;;;4.25;;
51732;SDS011;39139;53.144;6.244;2023-02-28T15:52:24;5.65;;;5.00;;
51732;SDS011;39139;53.144;6.244;2023-02-28T15:55:02;6.60;;;4.95;;
51732;SDS011;39139;53.144;6.244;2023-02-28T15:57:42;6.35;;;4.68;;
51732;SDS011;39139;53.144;6.244;2023-02-28T16:00:12;7.13;;;5.53;;
51732;SDS011;39139;53.144;6.244;2023-02-28T16:02:40;10.52;;;5.32;;
51732;SDS011;39139;53.144;6.244;2023-02-28T16:07:35;6.40;;;4.80;;
51732;SDS011;39139;53.144;6.244;2023-02-28T16:10:05;7.40;;;4.82;;
51732;SDS011;39139;53.144;6.244;2023-02-28T16:12:33;5.88;;;5.07;;
51732;SDS011;39139;53.144;6.244;2023-02-28T16:15:03;6.32;;;5.05;;
51732;SDS011;39139;53.144;6.244;2023-02-28T16:17:34;6.70;;;5.05;;
51732;SDS011;39139;53.144;6.244;2023-02-28T16:20:05;7.80;;;5.53;;
51732;SDS011;39139;53.144;6.244;2023-02-28T16:22:39;6.28;;;4.97;;
51732;SDS011;39139;53.144;6.244;2023-02-28T16:25:07;9.40;;;5.72;;
51732;SDS011;39139;53.144;6.244;2023-02-28T16:27:40;6.63;;;5.63;;
51732;SDS011;39139;53.144;6.244;2023-02-28T16:30:16;6.70;;;6.00;;
51732;SDS011;39139;53.144;6.244;2023-02-28T16:32:45;7.43;;;5.97;;
51732;SDS011;39139;53.144;6.244;2023-02-28T16:35:11;11.10;;;5.97;;
51732;SDS011;39139;53.144;6.244;2023-02-28T16:37:39;8.27;;;6.45;;
51732;SDS011;39139;53.144;6.244;2023-02-28T16:40:05;9.35;;;6.45;;
51732;SDS011;39139;53.144;6.244;2023-02-28T16:42:33;11.65;;;6.97;;
51732;SDS011;39139;53.144;6.244;2023-02-28T16:44:58;8.32;;;7.03;;
51732;SDS011;39139;53.144;6.244;2023-02-28T16:47:24;9.25;;;7.78;;
51732;SDS011;39139;53.144;6.244;2023-02-28T16:49:51;9.90;;;7.13;;
51732;SDS011;39139;53.144;6.244;2023-02-28T16:52:17;11.07;;;7.32;;
51732;SDS011;39139;53.144;6.244;2023-02-28T16:54:43;10.52;;;7.13;;
51732;SDS011;39139;53.144;6.244;2023-02-28T16:57:16;10.02;;;7.18;;
51732;SDS011;39139;53.144;6.244;2023-02-28T16:59:48;11.27;;;8.18;;
51732;SDS011;39139;53.144;6.244;2023-02-28T17:02:16;15.18;;;8.07;;
51732;SDS011;39139;53.144;6.244;2023-02-28T17:04:44;12.73;;;7.95;;
51732;SDS011;39139;53.144;6.244;2023-02-28T17:07:11;9.68;;;7.22;;
51732;SDS011;39139;53.144;6.244;2023-02-28T17:09:42;12.55;;;8.13;;
51732;SDS011;39139;53.144;6.244;2023-02-28T17:12:08;13.70;;;7.85;;